Airfield :
LOGIN :

Register | Disclaimer

   EN    FR    IT 

 










Legend :    VFR   Marginal VFR   IFR   Intensive IFR   Very Intensive IFR
Visi :
Ceiling :
>= 8 km
>= 3000ft
5 to 8 km
1000 to 3000 ft
1500m to 5 km
500 to 1000 ft
800 to 1500m
200 to 500 ft
< 800m
< 200 ft
Symbols :   Thunderstorms  Fog  Heavy snow  Heavy precipitations  Wind > 20 kt
SIGMETs :     Misc.  Thunderstorms  Icing  Turbulence  Mountain Waves  Volcanic Ashes







- Airport Elevation : 16 ft
- IATA code : EAS


LESO - San Sebastian Fuenterrabia

CURRENT METAR :
  • 181100Z 01007KT 320V060 9999 FEW035 SCT045 23/15 Q1019

EXPIRED METARs :
  • 181030Z 36005KT 290V070 9999 FEW033 SCT045 23/15 Q1019
  • 181000Z 34005KT 260V070 9999 FEW033 SCT049 23/15 Q1019
  • 180930Z 35005KT 300V040 9999 SCT032 SCT049 22/15 Q1019
  • 180900Z 35004KT 300V060 9999 SCT031 SCT047 22/14 Q1019
  • 180830Z 34004KT 260V060 9999 SCT032 BKN047 22/15 Q1019

TAF TAF LESO
Valid from the 18 at 12:00 until the 19 at 12:00 UTC


181100Z 1812/1912 35008KT 9999 FEW035 TX24/1912Z TN15/1905Z
No reported NOTAMs for that airfield.



MET'MAP, your aeronautical weather chart ! - Copyright ORBIFLY December 2007 - Disclaimer

ORBIFLY MET'MAP TEAM :

Programming & Development : Alexandra Zaïnal
Concept & Development : Baudouin d'Aumeries
Co-Development & Prog : Marc-Olivier Méhu
Technical & hardware support : Manuel Goepfert

Contact : metmap@orbifly.com




SOURCES & CREDITS :

   NOAA